createdAt,value
2023-01-26T00:01:19.431Z,84.88
2023-01-26T00:03:47.460Z,85.06
2023-01-26T00:06:16.123Z,84.84
2023-01-26T00:08:45.718Z,84.85
2023-01-26T00:11:15.732Z,84.80
2023-01-26T00:13:43.074Z,84.71
2023-01-26T00:16:12.328Z,84.59
2023-01-26T00:18:40.438Z,84.64
2023-01-26T00:21:09.352Z,84.56
2023-01-26T00:23:37.185Z,84.44
2023-01-26T00:26:07.232Z,84.42
2023-01-26T00:28:34.570Z,84.38
2023-01-26T00:31:07.782Z,84.58
2023-01-26T00:33:37.061Z,84.56
2023-01-26T00:36:04.486Z,84.49
2023-01-26T00:38:31.896Z,84.43
2023-01-26T00:40:58.931Z,84.37
2023-01-26T00:43:26.179Z,84.39
2023-01-26T00:45:53.229Z,84.39
2023-01-26T00:48:21.556Z,84.37
2023-01-26T00:50:51.326Z,84.37
2023-01-26T00:53:18.492Z,84.25
2023-01-26T00:55:46.005Z,84.35
2023-01-26T00:58:13.387Z,84.34
2023-01-26T01:00:41.282Z,84.41
2023-01-26T01:03:08.908Z,84.38
2023-01-26T01:05:36.404Z,84.46
2023-01-26T01:08:03.745Z,84.50
2023-01-26T01:10:31.073Z,84.72
2023-01-26T01:12:58.429Z,84.64
2023-01-26T01:15:25.479Z,84.56
2023-01-26T01:17:53.048Z,84.65
2023-01-26T01:20:20.699Z,84.70
2023-01-26T01:22:47.850Z,84.70
2023-01-26T01:25:15.083Z,84.85
2023-01-26T01:27:42.663Z,84.77
2023-01-26T01:30:12.297Z,84.79
2023-01-26T01:32:40.347Z,84.86
2023-01-26T01:35:08.981Z,84.91
2023-01-26T01:37:37.109Z,84.89
2023-01-26T01:40:04.226Z,85.16
2023-01-26T01:42:31.386Z,85.09
2023-01-26T01:45:38.697Z,85.10
2023-01-26T01:48:10.761Z,85.34
2023-01-26T01:50:41.096Z,85.50
2023-01-26T01:53:10.010Z,85.33
2023-01-26T01:55:38.149Z,85.29
2023-01-26T01:58:08.373Z,85.40
2023-01-26T02:00:35.994Z,85.44
2023-01-26T02:03:19.461Z,85.61
2023-01-26T02:05:53.987Z,85.62
2023-01-26T02:08:23.797Z,85.62
2023-01-26T02:10:55.670Z,85.80
2023-01-26T02:13:25.542Z,85.90
2023-01-26T02:15:54.471Z,86.11
2023-01-26T02:18:22.104Z,85.93
2023-01-26T02:20:52.158Z,86.12
2023-01-26T02:23:27.703Z,86.24
2023-01-26T02:26:07.027Z,86.28
2023-01-26T02:28:34.285Z,86.20
2023-01-26T02:31:04.777Z,86.24
2023-01-26T02:33:34.447Z,86.38
2023-01-26T02:36:04.091Z,86.42
2023-01-26T02:38:39.344Z,86.37
2023-01-26T02:41:09.632Z,86.49
2023-01-26T02:43:37.059Z,86.40
2023-01-26T02:46:04.493Z,86.36
2023-01-26T02:48:51.008Z,86.51
2023-01-26T02:51:18.275Z,86.34
2023-01-26T02:53:46.844Z,86.31
2023-01-26T02:56:13.995Z,86.41
2023-01-26T02:58:41.268Z,86.49
2023-01-26T03:01:08.860Z,86.46
2023-01-26T03:03:43.125Z,86.42
2023-01-26T03:06:11.716Z,86.53
2023-01-26T03:08:40.014Z,86.42
2023-01-26T03:11:10.204Z,86.25
2023-01-26T03:13:37.772Z,86.45
2023-01-26T03:16:07.700Z,86.46
2023-01-26T03:18:53.982Z,86.43
2023-01-26T03:21:41.825Z,86.35
2023-01-26T03:24:30.270Z,86.44
2023-01-26T03:27:16.060Z,86.54
2023-01-26T03:29:43.548Z,86.54
2023-01-26T03:32:10.992Z,86.39
2023-01-26T03:34:41.858Z,86.53
2023-01-26T03:37:09.069Z,86.64
2023-01-26T03:40:05.060Z,86.60
2023-01-26T03:42:51.523Z,86.72
2023-01-26T03:45:36.662Z,86.81
2023-01-26T03:48:30.068Z,86.62
2023-01-26T03:51:15.167Z,86.55
2023-01-26T03:54:00.479Z,86.73
2023-01-26T03:56:32.797Z,86.64
2023-01-26T03:59:09.400Z,86.93
2023-01-26T04:01:39.285Z,86.84
2023-01-26T04:04:25.151Z,86.67
2023-01-26T04:07:11.213Z,86.69
2023-01-26T04:09:43.692Z,86.66
2023-01-26T04:12:12.376Z,86.53
2023-01-26T04:15:08.706Z,86.39
2023-01-26T04:17:54.030Z,86.42
2023-01-26T04:20:39.156Z,86.47
2023-01-26T04:23:06.419Z,86.36
2023-01-26T04:25:34.542Z,86.41
2023-01-26T04:28:02.154Z,86.37
2023-01-26T04:30:30.065Z,86.32
2023-01-26T04:32:59.360Z,86.33
2023-01-26T04:35:26.974Z,86.37
2023-01-26T04:37:54.434Z,86.29
2023-01-26T04:40:22.707Z,86.40
2023-01-26T04:42:50.066Z,86.25
2023-01-26T04:45:17.728Z,86.23
2023-01-26T04:47:45.494Z,86.16
2023-01-26T04:50:14.753Z,86.22
2023-01-26T04:52:42.248Z,86.25
2023-01-26T04:55:10.869Z,86.20
2023-01-26T04:57:40.343Z,86.23
2023-01-26T05:00:10.880Z,86.22
2023-01-26T05:02:38.375Z,86.20
2023-01-26T05:05:08.871Z,86.26
2023-01-26T05:07:36.010Z,86.25
2023-01-26T05:10:03.669Z,86.17
2023-01-26T05:12:43.633Z,86.26
2023-01-26T05:15:29.301Z,86.41
2023-01-26T05:18:02.006Z,86.40
2023-01-26T05:20:47.072Z,86.41
2023-01-26T05:23:19.424Z,86.49
2023-01-26T05:26:06.349Z,86.57
2023-01-26T05:28:44.604Z,86.60
2023-01-26T05:31:11.799Z,86.70
2023-01-26T05:33:39.055Z,86.71
2023-01-26T05:36:09.333Z,86.63
2023-01-26T05:38:36.839Z,86.72
2023-01-26T05:41:04.273Z,86.92
2023-01-26T05:43:40.000Z,86.92
2023-01-26T05:46:34.739Z,86.95
2023-01-26T05:49:03.329Z,87.03
2023-01-26T05:51:30.888Z,87.12
2023-01-26T05:53:59.269Z,87.17
2023-01-26T05:56:27.381Z,87.18
2023-01-26T05:59:00.049Z,87.18
2023-01-26T06:01:27.483Z,87.23
2023-01-26T06:03:58.982Z,87.15
2023-01-26T06:06:30.096Z,87.39
2023-01-26T06:09:04.352Z,87.19
2023-01-26T06:11:32.665Z,87.28
2023-01-26T06:14:09.704Z,87.29
2023-01-26T06:16:36.928Z,87.21
2023-01-26T06:19:06.014Z,87.13
2023-01-26T06:21:34.062Z,87.17
2023-01-26T06:24:01.981Z,87.12
2023-01-26T06:26:29.487Z,87.16
2023-01-26T06:28:57.670Z,87.16
2023-01-26T06:31:29.747Z,87.10
2023-01-26T06:33:58.736Z,86.97
2023-01-26T06:36:28.436Z,86.89
2023-01-26T06:38:57.161Z,86.83
2023-01-26T06:41:24.960Z,86.92
2023-01-26T06:43:52.082Z,87.15
2023-01-26T06:46:20.768Z,87.22
2023-01-26T06:48:49.711Z,87.38
2023-01-26T06:51:46.354Z,87.62
2023-01-26T06:54:15.862Z,87.57
2023-01-26T06:57:06.357Z,87.91
2023-01-26T06:59:56.241Z,87.85
2023-01-26T07:02:44.955Z,88.03
2023-01-26T07:05:12.863Z,88.10
2023-01-26T07:07:40.236Z,87.83
2023-01-26T07:10:10.071Z,87.91
2023-01-26T07:12:46.064Z,87.93
2023-01-26T07:15:14.784Z,87.86
2023-01-26T07:17:41.926Z,87.87
2023-01-26T07:20:11.799Z,87.86
2023-01-26T07:22:38.994Z,87.83
2023-01-26T07:25:07.073Z,87.79
2023-01-26T07:27:34.810Z,87.78
2023-01-26T07:30:01.798Z,87.93
2023-01-26T07:32:28.941Z,87.88
2023-01-26T07:34:56.083Z,87.84
2023-01-26T07:37:23.122Z,87.80
2023-01-26T07:39:51.353Z,87.89
2023-01-26T07:42:18.776Z,87.59
2023-01-26T07:44:48.699Z,87.71
2023-01-26T07:47:16.024Z,87.66
2023-01-26T07:49:43.358Z,87.52
2023-01-26T07:52:10.877Z,87.76
2023-01-26T07:54:38.400Z,87.80
2023-01-26T07:57:07.162Z,87.78
2023-01-26T07:59:34.188Z,87.53
2023-01-26T08:02:01.284Z,87.31
2023-01-26T08:04:28.691Z,87.35
2023-01-26T08:06:55.787Z,87.31
2023-01-26T08:09:23.007Z,86.95
2023-01-26T08:11:49.984Z,86.81
2023-01-26T08:14:17.553Z,86.78
2023-01-26T08:16:45.592Z,86.83
2023-01-26T08:19:13.405Z,86.73
2023-01-26T08:21:40.737Z,86.56
2023-01-26T08:24:09.148Z,86.57
2023-01-26T08:26:36.518Z,86.44
2023-01-26T08:29:03.854Z,86.11
2023-01-26T08:31:31.050Z,85.83
2023-01-26T08:33:58.443Z,85.48
2023-01-26T08:36:26.208Z,85.22
2023-01-26T08:38:55.401Z,85.24
2023-01-26T08:41:22.734Z,84.90
2023-01-26T08:43:50.105Z,84.63
2023-01-26T08:46:17.599Z,84.15
2023-01-26T08:48:44.833Z,83.77
2023-01-26T08:51:11.905Z,83.41
2023-01-26T08:53:39.651Z,83.19
2023-01-26T08:56:09.704Z,83.13
2023-01-26T08:58:37.306Z,83.29
2023-01-26T09:01:07.193Z,83.32
2023-01-26T09:03:34.383Z,83.18
2023-01-26T09:06:04.484Z,82.95
2023-01-26T09:08:32.061Z,82.29
2023-01-26T09:10:59.533Z,82.34
2023-01-26T09:13:26.985Z,82.34
2023-01-26T09:15:54.146Z,82.33
2023-01-26T09:18:21.354Z,81.89
2023-01-26T09:20:49.917Z,81.60
2023-01-26T09:23:18.297Z,81.64
2023-01-26T09:25:45.527Z,81.52
2023-01-26T09:28:12.853Z,81.44
2023-01-26T09:30:40.200Z,81.53
2023-01-26T09:33:08.044Z,81.61
2023-01-26T09:35:35.641Z,80.94
2023-01-26T09:38:02.803Z,80.87
2023-01-26T09:40:44.607Z,80.77
2023-01-26T09:43:24.113Z,80.77
2023-01-26T09:46:02.032Z,80.46
2023-01-26T09:48:37.666Z,80.42
2023-01-26T09:51:11.885Z,80.68
2023-01-26T09:53:46.838Z,80.16
2023-01-26T09:56:19.777Z,80.66
2023-01-26T09:58:50.958Z,80.82
2023-01-26T10:01:25.762Z,80.60
2023-01-26T10:04:02.032Z,80.24
2023-01-26T10:06:32.212Z,80.43
2023-01-26T10:09:15.105Z,80.44
2023-01-26T10:11:46.147Z,80.31
2023-01-26T10:14:17.169Z,80.27
2023-01-26T10:16:48.254Z,80.05
2023-01-26T10:19:22.104Z,80.09
2023-01-26T10:21:53.267Z,80.11
2023-01-26T10:24:24.091Z,79.87
2023-01-26T10:26:52.492Z,79.73
2023-01-26T10:29:20.848Z,79.81
2023-01-26T10:31:48.635Z,79.74
2023-01-26T10:34:23.246Z,79.78
2023-01-26T10:36:51.019Z,80.03
2023-01-26T10:39:19.580Z,79.97
2023-01-26T10:41:59.744Z,80.03
2023-01-26T10:44:34.514Z,79.84
2023-01-26T10:47:21.699Z,79.95
2023-01-26T10:49:49.801Z,79.99
2023-01-26T10:52:21.852Z,79.80
2023-01-26T10:54:50.366Z,79.50
2023-01-26T10:57:28.237Z,79.25
2023-01-26T10:59:58.964Z,79.10
2023-01-26T11:02:29.107Z,79.17
2023-01-26T11:05:16.866Z,79.28
2023-01-26T11:07:44.971Z,78.99
2023-01-26T11:10:33.023Z,79.21
2023-01-26T11:13:20.791Z,79.29
2023-01-26T11:15:51.210Z,79.48
2023-01-26T11:18:27.930Z,79.35
2023-01-26T11:21:02.071Z,79.04
2023-01-26T11:23:41.299Z,78.48
2023-01-26T11:26:44.140Z,77.98
2023-01-26T11:29:32.378Z,78.15
2023-01-26T11:32:05.307Z,78.14
2023-01-26T11:34:42.517Z,78.40
2023-01-26T11:37:36.609Z,78.46
2023-01-26T11:40:15.883Z,78.07
2023-01-26T11:42:53.308Z,77.90
2023-01-26T11:45:26.863Z,77.88
2023-01-26T11:48:09.518Z,78.18
2023-01-26T11:50:42.291Z,78.15
2023-01-26T11:53:28.301Z,78.08
2023-01-26T11:56:06.579Z,78.17
2023-01-26T11:58:38.769Z,78.13
2023-01-26T12:01:12.678Z,78.07
2023-01-26T12:03:46.599Z,78.31
2023-01-26T12:06:21.236Z,78.24
2023-01-26T12:08:54.369Z,78.46
2023-01-26T12:11:27.429Z,78.38
2023-01-26T12:14:03.545Z,77.98
2023-01-26T12:16:41.691Z,77.93
2023-01-26T12:19:19.383Z,77.87
2023-01-26T12:21:48.585Z,77.91
2023-01-26T12:24:46.782Z,77.77
2023-01-26T12:27:17.933Z,77.61
2023-01-26T12:29:52.651Z,77.80
2023-01-26T12:32:22.709Z,77.79
2023-01-26T12:34:50.251Z,78.03
2023-01-26T12:37:34.519Z,77.80
2023-01-26T12:40:13.906Z,77.99
2023-01-26T12:42:49.148Z,78.02
2023-01-26T12:45:22.408Z,77.93
2023-01-26T12:47:53.699Z,77.64
2023-01-26T12:50:30.738Z,77.56
2023-01-26T12:53:02.507Z,77.51
2023-01-26T12:55:36.207Z,77.71
2023-01-26T12:58:06.271Z,77.82
2023-01-26T13:00:35.934Z,77.59
2023-01-26T13:03:07.073Z,77.78
2023-01-26T13:05:36.477Z,77.65
2023-01-26T13:08:37.114Z,77.85
2023-01-26T13:11:07.047Z,77.53
2023-01-26T13:13:36.213Z,77.58
2023-01-26T13:16:34.658Z,77.47
2023-01-26T13:19:03.704Z,77.85
2023-01-26T13:21:43.341Z,77.79
2023-01-26T13:24:46.923Z,77.38
2023-01-26T13:27:32.529Z,77.42
2023-01-26T13:30:00.342Z,77.73
2023-01-26T13:32:54.385Z,77.67
2023-01-26T13:35:24.051Z,77.92
2023-01-26T13:38:00.645Z,77.68
2023-01-26T13:40:31.743Z,77.79
2023-01-26T13:43:06.018Z,77.48
2023-01-26T13:45:38.402Z,77.69
2023-01-26T13:48:16.405Z,77.69
2023-01-26T13:50:44.607Z,77.78
2023-01-26T13:53:34.094Z,77.84
2023-01-26T13:56:03.382Z,77.90
2023-01-26T13:58:31.003Z,78.07
2023-01-26T14:01:06.449Z,78.16
2023-01-26T14:03:34.640Z,78.17
2023-01-26T14:06:06.372Z,78.21
2023-01-26T14:08:34.577Z,78.29
2023-01-26T14:11:03.773Z,78.26
2023-01-26T14:13:35.108Z,78.27
2023-01-26T14:16:07.785Z,78.33
2023-01-26T14:18:35.210Z,78.72
2023-01-26T14:21:05.295Z,78.64
2023-01-26T14:23:36.943Z,78.71
2023-01-26T14:26:06.750Z,78.89
2023-01-26T14:28:37.393Z,78.92
2023-01-26T14:31:08.591Z,79.03
2023-01-26T14:33:37.615Z,79.02
2023-01-26T14:36:06.919Z,79.07
2023-01-26T14:38:44.256Z,79.21
2023-01-26T14:41:17.854Z,79.16
2023-01-26T14:43:45.758Z,79.27
2023-01-26T14:46:18.479Z,79.32
2023-01-26T14:48:52.391Z,79.46
2023-01-26T14:51:23.190Z,79.63
2023-01-26T14:53:55.665Z,79.71
2023-01-26T14:56:27.114Z,79.53
2023-01-26T14:58:55.813Z,79.81
2023-01-26T15:01:28.079Z,79.83
2023-01-26T15:04:02.694Z,79.95
2023-01-26T15:06:32.791Z,79.99
2023-01-26T15:09:03.407Z,79.95
2023-01-26T15:11:53.672Z,80.05
2023-01-26T15:14:46.306Z,80.29
2023-01-26T15:17:30.062Z,80.16
2023-01-26T15:19:57.486Z,80.19
2023-01-26T15:22:27.128Z,80.37
2023-01-26T15:25:08.262Z,80.36
2023-01-26T15:27:37.480Z,80.51
2023-01-26T15:30:08.084Z,80.43
2023-01-26T15:32:41.304Z,80.49
2023-01-26T15:35:27.162Z,80.45
2023-01-26T15:38:03.298Z,80.36
2023-01-26T15:40:31.099Z,80.44
2023-01-26T15:43:15.406Z,80.45
2023-01-26T15:45:48.546Z,80.42
2023-01-26T15:48:15.710Z,80.37
2023-01-26T15:50:43.046Z,80.64
2023-01-26T15:53:14.732Z,80.38
2023-01-26T15:55:42.417Z,80.45
2023-01-26T15:58:09.959Z,80.29
2023-01-26T16:00:37.503Z,80.35
2023-01-26T16:03:08.773Z,80.38
2023-01-26T16:05:35.884Z,80.09
2023-01-26T16:08:03.052Z,80.08
2023-01-26T16:10:30.484Z,80.15
2023-01-26T16:12:58.588Z,80.22
2023-01-26T16:15:34.251Z,80.23
2023-01-26T16:18:01.667Z,79.77
2023-01-26T16:20:28.648Z,79.70
2023-01-26T16:22:55.805Z,79.78
2023-01-26T16:25:29.418Z,79.63
2023-01-26T16:27:57.876Z,79.73
2023-01-26T16:30:27.060Z,79.80
2023-01-26T16:32:54.849Z,79.63
2023-01-26T16:35:24.628Z,79.66
2023-01-26T16:37:51.885Z,79.53
2023-01-26T16:40:20.951Z,79.63
2023-01-26T16:42:49.898Z,79.61
2023-01-26T16:45:22.561Z,79.45
2023-01-26T16:47:54.973Z,79.28
2023-01-26T16:50:24.734Z,79.26
2023-01-26T16:52:52.324Z,79.23
2023-01-26T16:55:20.334Z,79.12
2023-01-26T16:57:50.051Z,79.26
2023-01-26T17:00:20.767Z,79.08
2023-01-26T17:02:52.267Z,79.05
2023-01-26T17:05:23.292Z,79.02
2023-01-26T17:07:51.881Z,78.92
2023-01-26T17:10:22.564Z,79.00
2023-01-26T17:12:49.815Z,78.96
2023-01-26T17:15:16.933Z,79.17
2023-01-26T17:17:46.035Z,79.10
2023-01-26T17:20:19.612Z,79.02
2023-01-26T17:22:47.480Z,78.98
2023-01-26T17:25:16.802Z,79.12
2023-01-26T17:27:44.755Z,79.28
2023-01-26T17:30:13.599Z,79.14
2023-01-26T17:32:40.687Z,79.06
2023-01-26T17:35:09.670Z,79.00
2023-01-26T17:37:37.704Z,78.94
2023-01-26T17:40:05.231Z,78.99
2023-01-26T17:42:34.331Z,79.07
2023-01-26T17:45:02.068Z,78.86
2023-01-26T17:47:29.220Z,78.74
2023-01-26T17:49:56.614Z,78.94
2023-01-26T17:52:23.809Z,78.96
2023-01-26T17:54:50.775Z,79.18
2023-01-26T17:57:18.027Z,79.12
2023-01-26T17:59:45.599Z,79.19
2023-01-26T18:02:14.421Z,79.02
2023-01-26T18:04:41.748Z,79.26
2023-01-26T18:07:09.207Z,79.63
2023-01-26T18:09:36.237Z,79.59
2023-01-26T18:12:03.509Z,79.59
2023-01-26T18:14:31.250Z,79.75
2023-01-26T18:16:58.302Z,79.76
2023-01-26T18:19:25.737Z,79.76
2023-01-26T18:21:53.031Z,79.85
2023-01-26T18:24:20.234Z,79.76
2023-01-26T18:26:47.526Z,79.71
2023-01-26T18:29:14.972Z,79.74
2023-01-26T18:31:43.560Z,79.83
2023-01-26T18:34:11.850Z,79.88
2023-01-26T18:36:39.188Z,79.92
2023-01-26T18:39:08.752Z,80.02
2023-01-26T18:41:36.439Z,80.06
2023-01-26T18:44:04.427Z,79.82
2023-01-26T18:46:32.216Z,80.08
2023-01-26T18:49:01.032Z,80.12
2023-01-26T18:51:29.833Z,79.97
2023-01-26T18:53:57.002Z,79.85
2023-01-26T18:56:24.589Z,80.12
2023-01-26T18:58:55.322Z,80.04
2023-01-26T19:01:22.746Z,80.12
2023-01-26T19:03:55.348Z,80.27
2023-01-26T19:06:23.078Z,80.17
2023-01-26T19:08:55.609Z,80.09
2023-01-26T19:11:22.948Z,80.19
2023-01-26T19:13:50.182Z,80.16
2023-01-26T19:16:17.246Z,80.13
2023-01-26T19:18:44.396Z,80.01
2023-01-26T19:21:12.467Z,80.13
2023-01-26T19:23:42.741Z,80.06
2023-01-26T19:26:14.374Z,79.79
2023-01-26T19:28:42.324Z,79.82
2023-01-26T19:31:10.691Z,79.76
2023-01-26T19:33:37.926Z,79.94
2023-01-26T19:36:08.398Z,79.98
2023-01-26T19:38:39.384Z,80.31
2023-01-26T19:41:06.704Z,79.93
2023-01-26T19:43:33.923Z,79.79
2023-01-26T19:46:01.069Z,79.77
2023-01-26T19:48:29.041Z,79.67
2023-01-26T19:51:04.603Z,79.65
2023-01-26T19:53:32.872Z,79.40
2023-01-26T19:56:08.723Z,79.16
2023-01-26T19:58:44.847Z,79.04
2023-01-26T20:01:14.116Z,79.10
2023-01-26T20:03:41.528Z,79.12
2023-01-26T20:06:17.223Z,79.11
2023-01-26T20:08:44.474Z,79.14
2023-01-26T20:11:12.735Z,78.94
2023-01-26T20:13:40.985Z,78.94
2023-01-26T20:16:08.869Z,79.00
2023-01-26T20:18:36.648Z,78.92
2023-01-26T20:21:06.704Z,79.03
2023-01-26T20:23:34.039Z,78.76
2023-01-26T20:26:10.346Z,78.66
2023-01-26T20:28:38.046Z,78.79
2023-01-26T20:31:11.751Z,78.67
2023-01-26T20:33:40.075Z,78.53
2023-01-26T20:36:12.955Z,78.33
2023-01-26T20:38:40.477Z,78.58
2023-01-26T20:41:12.266Z,78.15
2023-01-26T20:43:49.500Z,77.83
2023-01-26T20:46:20.380Z,77.69
2023-01-26T20:48:47.748Z,77.58
2023-01-26T20:51:16.715Z,77.64
2023-01-26T20:53:44.508Z,77.37
2023-01-26T20:56:14.409Z,77.36
2023-01-26T20:58:43.091Z,77.33
2023-01-26T21:01:12.646Z,77.36
2023-01-26T21:03:41.135Z,77.45
2023-01-26T21:06:10.250Z,77.36
2023-01-26T21:08:37.852Z,77.11
2023-01-26T21:11:05.434Z,77.04
2023-01-26T21:13:32.474Z,76.67
2023-01-26T21:15:59.461Z,76.49
2023-01-26T21:18:26.824Z,76.51
2023-01-26T21:20:58.961Z,76.84
2023-01-26T21:23:26.414Z,76.83
2023-01-26T21:26:00.473Z,76.92
2023-01-26T21:28:35.582Z,76.71
2023-01-26T21:31:04.128Z,76.89
2023-01-26T21:33:31.879Z,76.87
2023-01-26T21:36:04.117Z,76.78
2023-01-26T21:38:33.884Z,76.87
2023-01-26T21:41:27.650Z,76.94
2023-01-26T21:43:58.324Z,76.79
2023-01-26T21:46:25.791Z,76.56
2023-01-26T21:48:53.264Z,76.32
2023-01-26T21:51:39.050Z,76.18
2023-01-26T21:54:07.183Z,76.06
2023-01-26T21:56:34.409Z,76.09
2023-01-26T21:59:04.305Z,76.18
2023-01-26T22:01:32.899Z,76.31
2023-01-26T22:04:01.666Z,76.28
2023-01-26T22:06:30.545Z,76.42
2023-01-26T22:08:59.425Z,76.56
2023-01-26T22:11:27.319Z,76.67
2023-01-26T22:13:55.302Z,76.48
2023-01-26T22:16:22.478Z,76.29
2023-01-26T22:18:50.693Z,76.22
2023-01-26T22:21:19.279Z,76.45
2023-01-26T22:23:46.312Z,76.07
2023-01-26T22:26:15.858Z,76.19
2023-01-26T22:28:44.765Z,76.06
2023-01-26T22:31:12.308Z,76.02
2023-01-26T22:33:40.137Z,75.98
2023-01-26T22:36:12.009Z,75.82
2023-01-26T22:38:40.202Z,75.83
2023-01-26T22:41:08.746Z,75.84
2023-01-26T22:43:36.441Z,75.76
2023-01-26T22:46:07.819Z,75.86
2023-01-26T22:48:35.701Z,75.75
2023-01-26T22:51:10.085Z,75.69
2023-01-26T22:53:37.702Z,75.73
2023-01-26T22:56:05.614Z,75.95
2023-01-26T22:58:34.306Z,75.86
2023-01-26T23:01:11.986Z,75.92
2023-01-26T23:03:40.592Z,76.06
2023-01-26T23:06:11.076Z,76.20
2023-01-26T23:08:38.327Z,76.26
2023-01-26T23:11:12.320Z,76.29
2023-01-26T23:13:42.067Z,76.46
2023-01-26T23:16:10.114Z,76.21
2023-01-26T23:18:37.930Z,76.16
2023-01-26T23:21:05.764Z,76.19
2023-01-26T23:23:33.099Z,76.23
2023-01-26T23:26:00.848Z,76.03
2023-01-26T23:28:29.755Z,76.04
2023-01-26T23:30:57.805Z,75.93
2023-01-26T23:33:27.468Z,76.03
2023-01-26T23:35:55.055Z,75.96
2023-01-26T23:38:23.573Z,75.92
2023-01-26T23:40:53.105Z,75.95
2023-01-26T23:43:21.014Z,75.92
2023-01-26T23:45:49.650Z,76.06
2023-01-26T23:48:17.565Z,76.04
2023-01-26T23:50:44.984Z,75.88
2023-01-26T23:53:12.653Z,76.08
2023-01-26T23:55:42.957Z,75.96
2023-01-26T23:58:10.334Z,75.93
